createdAt,value
2018-03-03T00:01:31.304Z,67.93
2018-03-03T00:03:58.916Z,67.68
2018-03-03T00:06:27.294Z,66.65
2018-03-03T00:08:55.635Z,65.65
2018-03-03T00:11:23.253Z,62.97
2018-03-03T00:13:50.847Z,64.28
2018-03-03T00:16:18.456Z,63.87
2018-03-03T00:18:46.811Z,66.97
2018-03-03T00:21:14.431Z,64.87
2018-03-03T00:23:42.019Z,68.18
2018-03-03T00:26:09.644Z,66.45
2018-03-03T00:28:37.230Z,70.28
2018-03-03T00:31:04.857Z,65.30
2018-03-03T00:33:32.468Z,68.75
2018-03-03T00:36:00.087Z,64.57
2018-03-03T00:38:27.681Z,69.12
2018-03-03T00:40:55.302Z,68.70
2018-03-03T00:43:23.692Z,69.45
2018-03-03T00:45:51.286Z,67.07
2018-03-03T00:48:18.916Z,66.18
2018-03-03T00:50:46.573Z,67.90
2018-03-03T00:53:14.176Z,69.07
2018-03-03T00:55:41.764Z,69.37
2018-03-03T00:58:10.156Z,68.18
2018-03-03T01:00:38.524Z,71.30
2018-03-03T01:03:06.137Z,71.53
2018-03-03T01:05:33.761Z,75.90
2018-03-03T01:08:02.116Z,69.32
2018-03-03T01:10:29.693Z,70.90
2018-03-03T01:12:58.090Z,69.12
2018-03-03T01:15:25.716Z,70.12
2018-03-03T01:17:53.333Z,73.85
2018-03-03T01:20:20.915Z,71.85
2018-03-03T01:22:48.559Z,71.12
2018-03-03T01:25:16.167Z,74.50
2018-03-03T01:27:43.742Z,71.87
2018-03-03T01:30:12.123Z,71.50
2018-03-03T01:32:40.487Z,71.35
2018-03-03T01:35:08.104Z,67.45
2018-03-03T01:37:35.685Z,71.00
2018-03-03T01:40:03.327Z,72.07
2018-03-03T01:42:30.908Z,72.70
2018-03-03T01:44:58.531Z,68.57
2018-03-03T01:47:26.107Z,73.37
2018-03-03T01:49:53.694Z,69.75
2018-03-03T01:52:21.324Z,68.57
2018-03-03T01:54:48.942Z,73.55
2018-03-03T01:57:16.532Z,71.25
2018-03-03T01:59:44.138Z,68.95
2018-03-03T02:02:11.768Z,73.07
2018-03-03T02:04:39.358Z,71.05
2018-03-03T02:07:07.002Z,74.12
2018-03-03T02:09:34.622Z,71.90
2018-03-03T02:12:10.282Z,75.53
2018-03-03T02:14:43.584Z,68.53
2018-03-03T02:17:12.807Z,70.22
2018-03-03T02:19:43.306Z,73.40
2018-03-03T02:22:13.605Z,77.50
2018-03-03T02:24:42.661Z,73.35
2018-03-03T02:27:11.940Z,70.15
2018-03-03T02:29:43.437Z,75.40
2018-03-03T02:32:14.971Z,71.72
2018-03-03T02:34:45.787Z,75.05
2018-03-03T02:37:15.537Z,71.47
2018-03-03T02:39:45.872Z,73.78
2018-03-03T02:42:16.262Z,74.85
2018-03-03T02:44:49.456Z,72.05
2018-03-03T02:47:23.785Z,77.00
2018-03-03T02:49:53.709Z,76.87
2018-03-03T02:52:24.633Z,71.25
2018-03-03T02:54:54.540Z,78.47
2018-03-03T02:57:24.225Z,75.28
2018-03-03T02:59:54.879Z,76.68
2018-03-03T03:02:27.225Z,78.07
2018-03-03T03:04:57.746Z,79.62
2018-03-03T03:07:28.376Z,77.28
2018-03-03T03:09:58.969Z,76.45
2018-03-03T03:12:28.603Z,79.80
2018-03-03T03:14:58.237Z,77.07
2018-03-03T03:17:29.000Z,72.00
2018-03-03T03:19:59.502Z,77.45
2018-03-03T03:22:30.155Z,76.80
2018-03-03T03:24:59.994Z,73.50
2018-03-03T03:27:30.650Z,77.05
2018-03-03T03:30:00.440Z,79.12
2018-03-03T03:32:30.102Z,82.12
2018-03-03T03:35:01.722Z,77.90
2018-03-03T03:37:31.452Z,76.07
2018-03-03T03:40:01.021Z,79.72
2018-03-03T03:42:30.897Z,74.90
2018-03-03T03:45:02.061Z,80.30
2018-03-03T03:47:31.689Z,69.55
2018-03-03T03:50:05.734Z,74.60
2018-03-03T03:52:36.415Z,77.60
2018-03-03T03:55:06.979Z,76.90
2018-03-03T03:57:36.539Z,77.97
2018-03-03T04:00:04.262Z,77.00
2018-03-03T04:02:31.804Z,80.28
2018-03-03T04:04:59.385Z,75.75
2018-03-03T04:07:27.010Z,74.07
2018-03-03T04:09:54.604Z,77.12
2018-03-03T04:12:22.254Z,80.53
2018-03-03T04:14:49.834Z,78.03
2018-03-03T04:17:17.410Z,73.57
2018-03-03T04:19:45.819Z,82.00
2018-03-03T04:22:13.413Z,82.53
2018-03-03T04:24:40.990Z,85.50
2018-03-03T04:27:08.615Z,82.88
2018-03-03T04:29:36.244Z,78.37
2018-03-03T04:32:04.633Z,79.20
2018-03-03T04:34:32.985Z,79.72
2018-03-03T04:37:00.618Z,78.78
2018-03-03T04:39:28.207Z,81.53
2018-03-03T04:41:55.838Z,78.40
2018-03-03T04:44:23.434Z,80.07
2018-03-03T04:46:51.066Z,79.05
2018-03-03T04:49:18.643Z,74.80
2018-03-03T04:51:46.282Z,78.75
2018-03-03T04:54:13.897Z,79.93
2018-03-03T04:56:42.274Z,77.37
2018-03-03T04:59:16.427Z,81.53
2018-03-03T05:01:47.276Z,77.20
2018-03-03T05:04:14.923Z,77.57
2018-03-03T05:06:57.422Z,76.47
2018-03-03T05:09:25.014Z,79.28
2018-03-03T05:11:52.603Z,80.20
2018-03-03T05:14:21.128Z,74.90
2018-03-03T05:16:54.429Z,84.75
2018-03-03T05:19:36.963Z,78.43
2018-03-03T05:22:10.084Z,74.97
2018-03-03T05:24:43.401Z,80.70
2018-03-03T05:27:29.454Z,78.75
2018-03-03T05:30:02.608Z,81.07
2018-03-03T05:32:35.856Z,82.10
2018-03-03T05:35:04.214Z,81.12
2018-03-03T05:37:37.574Z,82.75
2018-03-03T05:40:10.716Z,81.78
2018-03-03T05:42:42.122Z,84.95
2018-03-03T05:45:30.645Z,79.90
2018-03-03T05:48:04.550Z,81.90
2018-03-03T05:50:38.485Z,82.15
2018-03-03T05:53:21.917Z,86.63
2018-03-03T05:55:55.172Z,84.75
2018-03-03T05:58:28.459Z,83.70
2018-03-03T06:01:01.695Z,79.60
2018-03-03T06:03:47.043Z,83.85
2018-03-03T06:06:29.514Z,81.05
2018-03-03T06:09:07.083Z,84.45
2018-03-03T06:11:34.674Z,80.25
2018-03-03T06:14:02.330Z,82.37
2018-03-03T06:16:29.908Z,83.50
2018-03-03T06:18:57.527Z,86.32
2018-03-03T06:21:25.104Z,84.07
2018-03-03T06:23:52.713Z,78.45
2018-03-03T06:26:21.084Z,81.50
2018-03-03T06:28:48.700Z,79.82
2018-03-03T06:31:16.283Z,86.80
2018-03-03T06:33:43.902Z,83.07
2018-03-03T06:36:11.498Z,79.37
2018-03-03T06:38:39.108Z,81.40
2018-03-03T06:41:06.687Z,85.90
2018-03-03T06:43:34.311Z,77.80
2018-03-03T06:46:01.931Z,83.18
2018-03-03T06:48:29.526Z,82.70
2018-03-03T06:50:57.162Z,80.87
2018-03-03T06:53:24.772Z,82.15
2018-03-03T06:55:53.174Z,80.38
2018-03-03T06:58:20.789Z,85.22
2018-03-03T07:00:48.392Z,82.85
2018-03-03T07:03:16.777Z,78.80
2018-03-03T07:05:44.362Z,77.35
2018-03-03T07:08:12.005Z,80.38
2018-03-03T07:10:39.640Z,82.47
2018-03-03T07:13:08.006Z,77.00
2018-03-03T07:15:35.602Z,76.50
2018-03-03T07:18:03.284Z,76.25
2018-03-03T07:20:30.882Z,75.47
2018-03-03T07:22:58.498Z,77.35
2018-03-03T07:25:26.077Z,81.65
2018-03-03T07:27:53.719Z,73.53
2018-03-03T07:30:21.322Z,83.20
2018-03-03T07:32:48.966Z,77.22
2018-03-03T07:35:16.751Z,75.57
2018-03-03T07:37:44.380Z,75.55
2018-03-03T07:40:11.963Z,75.45
2018-03-03T07:42:39.567Z,76.97
2018-03-03T07:45:07.183Z,74.20
2018-03-03T07:47:34.787Z,79.47
2018-03-03T07:50:04.675Z,79.35
2018-03-03T07:52:32.324Z,77.07
2018-03-03T07:54:59.904Z,75.10
2018-03-03T07:57:27.528Z,76.50
2018-03-03T07:59:55.140Z,75.30
2018-03-03T08:02:22.711Z,77.95
2018-03-03T08:04:51.106Z,74.85
2018-03-03T08:07:18.700Z,79.12
2018-03-03T08:09:46.320Z,75.60
2018-03-03T08:12:14.669Z,74.60
2018-03-03T08:14:42.283Z,79.90
2018-03-03T08:17:09.865Z,71.20
2018-03-03T08:19:37.494Z,75.47
2018-03-03T08:22:05.079Z,78.37
2018-03-03T08:24:32.720Z,69.15
2018-03-03T08:27:00.342Z,69.22
2018-03-03T08:29:27.924Z,72.82
2018-03-03T08:31:55.564Z,72.97
2018-03-03T08:34:23.210Z,66.87
2018-03-03T08:36:50.787Z,65.55
2018-03-03T08:39:18.416Z,67.20
2018-03-03T08:41:46.051Z,61.33
2018-03-03T08:44:13.671Z,64.53
2018-03-03T08:46:41.254Z,62.72
2018-03-03T08:49:09.646Z,61.13
2018-03-03T08:51:37.288Z,60.30
2018-03-03T08:54:04.901Z,57.78
2018-03-03T08:56:32.526Z,58.45
2018-03-03T08:59:00.887Z,59.67
2018-03-03T09:01:28.485Z,58.17
2018-03-03T09:03:56.129Z,55.25
2018-03-03T09:06:24.511Z,56.22
2018-03-03T09:08:52.086Z,56.45
2018-03-03T09:11:19.725Z,59.10
2018-03-03T09:13:48.079Z,60.67
2018-03-03T09:16:15.683Z,61.13
2018-03-03T09:18:43.304Z,62.83
2018-03-03T09:21:10.891Z,64.65
2018-03-03T09:23:39.296Z,63.63
2018-03-03T09:26:06.915Z,65.75
2018-03-03T09:28:34.590Z,64.10
2018-03-03T09:31:02.239Z,69.45
2018-03-03T09:33:29.842Z,62.95
2018-03-03T09:35:57.455Z,62.92
2018-03-03T09:38:25.073Z,64.43
2018-03-03T09:40:52.691Z,64.72
2018-03-03T09:43:21.079Z,63.15
2018-03-03T09:45:48.760Z,66.82
2018-03-03T09:48:16.383Z,64.18
2018-03-03T09:50:44.018Z,61.28
2018-03-03T09:53:11.636Z,64.72
2018-03-03T09:55:39.278Z,65.45
2018-03-03T09:58:07.703Z,63.38
2018-03-03T10:00:35.314Z,61.75
2018-03-03T10:03:02.944Z,62.08
2018-03-03T10:05:30.602Z,61.90
2018-03-03T10:07:58.190Z,65.30
2018-03-03T10:10:25.826Z,63.67
2018-03-03T10:12:53.479Z,65.22
2018-03-03T10:15:21.129Z,64.47
2018-03-03T10:17:48.731Z,65.53
2018-03-03T10:20:16.363Z,62.70
2018-03-03T10:22:43.958Z,61.28
2018-03-03T10:25:11.600Z,65.03
2018-03-03T10:27:39.211Z,62.53
2018-03-03T10:30:07.638Z,62.88
2018-03-03T10:32:36.030Z,62.60
2018-03-03T10:35:03.629Z,60.90
2018-03-03T10:37:32.022Z,61.55
2018-03-03T10:40:00.421Z,59.83
2018-03-03T10:42:28.036Z,62.13
2018-03-03T10:44:55.672Z,59.15
2018-03-03T10:47:23.296Z,60.67
2018-03-03T10:49:50.942Z,57.35
2018-03-03T10:52:19.288Z,60.10
2018-03-03T10:54:46.922Z,60.33
2018-03-03T10:57:14.578Z,58.35
2018-03-03T10:59:42.358Z,63.25
2018-03-03T11:02:10.032Z,59.22
2018-03-03T11:04:37.731Z,62.00
2018-03-03T11:07:06.108Z,62.40
2018-03-03T11:09:34.540Z,58.97
2018-03-03T11:12:02.177Z,59.08
2018-03-03T11:14:29.841Z,56.67
2018-03-03T11:16:57.543Z,59.83
2018-03-03T11:19:25.151Z,53.72
2018-03-03T11:21:52.841Z,50.85
2018-03-03T11:24:20.450Z,49.63
2018-03-03T11:26:48.034Z,48.65
2018-03-03T11:29:16.435Z,50.88
2018-03-03T11:31:44.089Z,52.40
2018-03-03T11:34:11.761Z,52.08
2018-03-03T11:36:39.373Z,51.50
2018-03-03T11:39:07.019Z,48.33
2018-03-03T11:41:34.692Z,49.00
2018-03-03T11:44:02.343Z,48.87
2018-03-03T11:46:29.972Z,43.70
2018-03-03T11:48:57.611Z,43.87
2018-03-03T11:51:25.217Z,43.58
2018-03-03T11:53:52.860Z,44.58
2018-03-03T11:56:20.479Z,41.45
2018-03-03T11:58:48.863Z,41.92
2018-03-03T12:01:17.279Z,41.45
2018-03-03T12:03:44.864Z,41.88
2018-03-03T12:06:12.503Z,43.00
2018-03-03T12:08:40.305Z,39.60
2018-03-03T12:11:07.933Z,41.93
2018-03-03T12:13:35.547Z,43.17
2018-03-03T12:16:03.200Z,42.63
2018-03-03T12:18:30.887Z,43.07
2018-03-03T12:20:59.281Z,42.63
2018-03-03T12:23:26.973Z,45.33
2018-03-03T12:25:55.329Z,44.10
2018-03-03T12:28:23.024Z,46.07
2018-03-03T12:30:50.828Z,42.93
2018-03-03T12:33:18.466Z,44.87
2018-03-03T12:35:46.125Z,43.40
2018-03-03T12:38:13.767Z,46.47
2018-03-03T12:40:41.425Z,43.63
2018-03-03T12:43:09.130Z,44.30
2018-03-03T12:45:36.808Z,44.97
2018-03-03T12:48:05.232Z,44.90
2018-03-03T12:50:32.822Z,46.87
2018-03-03T12:53:00.447Z,46.10
2018-03-03T12:55:28.060Z,46.03
2018-03-03T12:57:56.966Z,45.47
2018-03-03T13:00:24.561Z,42.83
2018-03-03T13:02:52.364Z,44.93
2018-03-03T13:05:20.056Z,44.23
2018-03-03T13:07:47.768Z,45.70
2018-03-03T13:10:15.459Z,45.10
2018-03-03T13:12:43.079Z,45.27
2018-03-03T13:15:10.730Z,46.57
2018-03-03T13:17:38.382Z,41.80
2018-03-03T13:20:06.831Z,43.67
2018-03-03T13:22:34.478Z,42.00
2018-03-03T13:25:02.088Z,44.47
2018-03-03T13:27:29.765Z,44.33
2018-03-03T13:29:57.382Z,41.33
2018-03-03T13:32:25.021Z,43.23
2018-03-03T13:34:52.619Z,44.67
2018-03-03T13:37:21.041Z,42.00
2018-03-03T13:39:48.670Z,38.38
2018-03-03T13:42:17.098Z,43.95
2018-03-03T13:44:44.719Z,42.08
2018-03-03T13:47:13.127Z,41.53
2018-03-03T13:49:40.750Z,43.80
2018-03-03T13:52:09.273Z,42.75
2018-03-03T13:54:36.906Z,41.53
2018-03-03T13:57:05.286Z,41.10
2018-03-03T13:59:32.930Z,39.75
2018-03-03T14:02:00.612Z,42.55
2018-03-03T14:04:28.396Z,42.45
2018-03-03T14:06:56.069Z,41.37
2018-03-03T14:09:23.727Z,42.60
2018-03-03T14:11:51.366Z,41.33
2018-03-03T14:14:19.783Z,40.90
2018-03-03T14:16:47.386Z,40.95
2018-03-03T14:19:15.043Z,40.53
2018-03-03T14:21:42.676Z,39.88
2018-03-03T14:24:10.333Z,42.62
2018-03-03T14:26:37.941Z,40.72
2018-03-03T14:29:06.318Z,40.72
2018-03-03T14:31:33.974Z,39.53
2018-03-03T14:34:01.581Z,40.53
2018-03-03T14:36:29.170Z,40.58
2018-03-03T14:38:56.803Z,40.97
2018-03-03T14:41:25.189Z,40.75
2018-03-03T14:43:53.358Z,40.33
2018-03-03T14:46:20.944Z,39.25
2018-03-03T14:48:48.520Z,41.30
2018-03-03T14:51:16.138Z,40.70
2018-03-03T14:53:43.757Z,42.90
2018-03-03T14:56:11.391Z,39.47
2018-03-03T14:58:39.038Z,39.90
2018-03-03T15:01:06.607Z,41.28
2018-03-03T15:03:34.195Z,39.60
2018-03-03T15:06:01.825Z,38.72
2018-03-03T15:08:29.451Z,39.78
2018-03-03T15:10:57.809Z,40.85
2018-03-03T15:13:25.493Z,40.42
2018-03-03T15:15:53.948Z,39.55
2018-03-03T15:18:21.506Z,40.45
2018-03-03T15:20:49.146Z,38.40
2018-03-03T15:23:16.758Z,39.33
2018-03-03T15:25:44.388Z,43.80
2018-03-03T15:28:11.996Z,42.28
2018-03-03T15:30:39.639Z,40.30
2018-03-03T15:33:07.247Z,41.00
2018-03-03T15:35:34.846Z,42.15
2018-03-03T15:38:03.272Z,42.25
2018-03-03T15:40:30.858Z,37.42
2018-03-03T15:42:58.551Z,40.80
2018-03-03T15:45:26.142Z,39.75
2018-03-03T15:47:53.769Z,40.85
2018-03-03T15:50:21.346Z,36.90
2018-03-03T15:52:49.747Z,37.40
2018-03-03T15:55:17.371Z,39.47
2018-03-03T15:57:44.994Z,38.95
2018-03-03T16:00:12.628Z,38.38
2018-03-03T16:02:40.222Z,37.63
2018-03-03T16:05:07.863Z,39.53
2018-03-03T16:07:35.446Z,36.75
2018-03-03T16:10:03.057Z,38.67
2018-03-03T16:12:31.410Z,37.42
2018-03-03T16:14:59.050Z,35.63
2018-03-03T16:17:26.647Z,36.15
2018-03-03T16:19:55.044Z,38.50
2018-03-03T16:22:23.395Z,38.15
2018-03-03T16:24:51.039Z,38.33
2018-03-03T16:27:18.667Z,35.90
2018-03-03T16:29:46.273Z,36.22
2018-03-03T16:32:13.886Z,37.97
2018-03-03T16:34:41.468Z,35.88
2018-03-03T16:37:09.076Z,38.88
2018-03-03T16:39:36.710Z,38.03
2018-03-03T16:42:04.318Z,36.92
2018-03-03T16:44:32.663Z,39.35
2018-03-03T16:47:00.282Z,37.83
2018-03-03T16:49:27.913Z,36.92
2018-03-03T16:51:56.315Z,39.63
2018-03-03T16:54:23.901Z,39.00
2018-03-03T16:56:51.527Z,36.78
2018-03-03T16:59:19.859Z,37.55
2018-03-03T17:01:47.508Z,36.45
2018-03-03T17:04:15.097Z,39.10
2018-03-03T17:06:42.711Z,39.45
2018-03-03T17:09:11.101Z,39.65
2018-03-03T17:11:38.690Z,38.00
2018-03-03T17:14:06.487Z,40.97
2018-03-03T17:16:34.119Z,40.83
2018-03-03T17:19:01.744Z,42.10
2018-03-03T17:21:29.318Z,45.55
2018-03-03T17:23:56.943Z,48.60
2018-03-03T17:26:25.293Z,51.22
2018-03-03T17:28:52.919Z,52.62
2018-03-03T17:31:20.571Z,52.62
2018-03-03T17:33:48.190Z,53.55
2018-03-03T17:36:16.608Z,54.53
2018-03-03T17:38:44.230Z,56.08
2018-03-03T17:41:11.856Z,54.40
2018-03-03T17:43:39.430Z,56.70
2018-03-03T17:46:07.020Z,58.45
2018-03-03T17:48:34.644Z,56.20
2018-03-03T17:51:02.304Z,54.42
2018-03-03T17:53:29.893Z,58.33
2018-03-03T17:55:57.471Z,55.40
2018-03-03T17:58:25.869Z,57.13
2018-03-03T18:00:53.482Z,58.38
2018-03-03T18:03:21.122Z,59.90
2018-03-03T18:05:48.739Z,59.00
2018-03-03T18:08:17.117Z,59.70
2018-03-03T18:10:45.507Z,63.65
2018-03-03T18:13:17.926Z,60.83
2018-03-03T18:15:45.520Z,58.65
2018-03-03T18:18:13.962Z,58.35
2018-03-03T18:20:41.561Z,58.35
2018-03-03T18:23:09.959Z,63.08
2018-03-03T18:25:38.306Z,56.72
2018-03-03T18:28:05.951Z,60.33
2018-03-03T18:30:33.546Z,57.45
2018-03-03T18:33:01.934Z,61.13
2018-03-03T18:35:30.277Z,61.37
2018-03-03T18:37:57.907Z,65.18
2018-03-03T18:40:25.505Z,63.03
2018-03-03T18:42:53.090Z,63.75
2018-03-03T18:45:20.723Z,64.65
2018-03-03T18:47:48.353Z,57.72
2018-03-03T18:50:15.980Z,66.95
2018-03-03T18:52:44.391Z,64.20
2018-03-03T18:55:12.006Z,67.82
2018-03-03T18:57:39.624Z,65.12
2018-03-03T19:00:07.216Z,64.50
2018-03-03T19:02:34.860Z,65.95
2018-03-03T19:05:02.448Z,63.60
2018-03-03T19:07:30.038Z,60.97
2018-03-03T19:09:58.428Z,64.85
2018-03-03T19:12:26.020Z,62.03
2018-03-03T19:14:53.638Z,65.70
2018-03-03T19:17:21.211Z,65.18
2018-03-03T19:19:48.848Z,62.75
2018-03-03T19:22:16.464Z,66.90
2018-03-03T19:24:44.100Z,67.82
2018-03-03T19:27:11.683Z,63.03
2018-03-03T19:29:39.300Z,65.62
2018-03-03T19:32:07.690Z,62.83
2018-03-03T19:34:35.323Z,63.95
2018-03-03T19:37:02.900Z,67.07
2018-03-03T19:39:30.541Z,65.72
2018-03-03T19:41:58.960Z,67.12
2018-03-03T19:44:26.559Z,63.05
2018-03-03T19:46:54.128Z,67.45
2018-03-03T19:49:21.749Z,64.53
2018-03-03T19:51:49.334Z,66.62
2018-03-03T19:54:16.946Z,67.53
2018-03-03T19:56:45.343Z,70.15
2018-03-03T19:59:12.996Z,63.35
2018-03-03T20:01:40.599Z,64.07
2018-03-03T20:04:08.208Z,62.17
2018-03-03T20:06:35.824Z,62.38
2018-03-03T20:09:03.448Z,67.12
2018-03-03T20:11:31.059Z,66.93
2018-03-03T20:13:58.676Z,66.87
2018-03-03T20:16:26.254Z,67.80
2018-03-03T20:18:53.951Z,64.47
2018-03-03T20:21:21.528Z,63.13
2018-03-03T20:23:49.154Z,63.50
2018-03-03T20:26:16.723Z,68.12
2018-03-03T20:28:44.343Z,67.62
2018-03-03T20:31:11.968Z,66.05
2018-03-03T20:33:39.579Z,66.78
2018-03-03T20:36:07.168Z,68.65
2018-03-03T20:38:34.797Z,67.78
2018-03-03T20:41:02.368Z,65.00
2018-03-03T20:43:30.010Z,65.85
2018-03-03T20:45:58.370Z,63.85
2018-03-03T20:48:26.787Z,69.07
2018-03-03T20:50:55.170Z,68.43
2018-03-03T20:53:22.776Z,71.93
2018-03-03T20:55:50.422Z,71.22
2018-03-03T20:58:18.007Z,71.32
2018-03-03T21:00:46.423Z,71.75
2018-03-03T21:03:16.971Z,75.53
2018-03-03T21:05:44.612Z,75.47
2018-03-03T21:08:12.241Z,76.18
2018-03-03T21:10:39.826Z,71.60
2018-03-03T21:13:08.183Z,74.32
2018-03-03T21:15:35.794Z,72.78
2018-03-03T21:18:03.389Z,72.65
2018-03-03T21:20:31.030Z,75.57
2018-03-03T21:22:58.612Z,76.72
2018-03-03T21:25:26.196Z,73.35
2018-03-03T21:27:53.834Z,72.78
2018-03-03T21:30:21.451Z,75.65
2018-03-03T21:32:49.078Z,76.15
2018-03-03T21:35:17.524Z,71.50
2018-03-03T21:37:45.130Z,69.68
2018-03-03T21:40:13.507Z,69.45
2018-03-03T21:42:41.901Z,69.85
2018-03-03T21:45:09.486Z,73.40
2018-03-03T21:47:37.093Z,70.57
2018-03-03T21:50:04.729Z,69.53
2018-03-03T21:52:32.360Z,71.53
2018-03-03T21:54:59.980Z,69.90
2018-03-03T21:57:27.619Z,71.72
2018-03-03T21:59:55.204Z,72.43
2018-03-03T22:02:22.782Z,69.85
2018-03-03T22:04:51.257Z,70.97
2018-03-03T22:07:18.848Z,72.75
2018-03-03T22:09:46.440Z,72.20
2018-03-03T22:12:14.059Z,68.93
2018-03-03T22:14:41.642Z,68.50
2018-03-03T22:17:09.239Z,70.75
2018-03-03T22:19:36.850Z,69.78
2018-03-03T22:22:04.811Z,71.82
2018-03-03T22:24:32.454Z,73.70
2018-03-03T22:27:00.830Z,73.90
2018-03-03T22:29:28.485Z,70.60
2018-03-03T22:31:56.059Z,74.30
2018-03-03T22:34:24.420Z,74.18
2018-03-03T22:36:52.048Z,70.37
2018-03-03T22:39:24.526Z,69.45
2018-03-03T22:41:52.106Z,73.82
2018-03-03T22:44:19.709Z,75.32
2018-03-03T22:46:47.285Z,72.78
2018-03-03T22:49:14.918Z,68.50
2018-03-03T22:51:45.959Z,72.20
2018-03-03T22:54:14.363Z,69.50
2018-03-03T22:56:41.951Z,69.65
2018-03-03T22:59:09.566Z,68.32
2018-03-03T23:01:37.921Z,70.55
2018-03-03T23:04:05.543Z,69.80
2018-03-03T23:06:33.174Z,71.22
2018-03-03T23:09:01.522Z,75.05
2018-03-03T23:11:29.143Z,71.30
2018-03-03T23:13:56.781Z,73.32
2018-03-03T23:16:25.133Z,73.30
2018-03-03T23:18:52.756Z,72.37
2018-03-03T23:21:20.357Z,73.53
2018-03-03T23:23:47.971Z,73.05
2018-03-03T23:26:15.575Z,71.07
2018-03-03T23:28:43.190Z,71.03
2018-03-03T23:31:11.532Z,72.68
2018-03-03T23:33:39.910Z,76.53
2018-03-03T23:36:07.492Z,73.10
2018-03-03T23:38:35.866Z,72.07
2018-03-03T23:41:04.280Z,74.68
2018-03-03T23:43:31.902Z,77.22
2018-03-03T23:46:00.247Z,74.93
2018-03-03T23:48:27.827Z,72.53
2018-03-03T23:50:56.234Z,75.25
2018-03-03T23:53:23.863Z,73.32
2018-03-03T23:55:51.482Z,72.47
2018-03-03T23:58:19.058Z,74.15
